Great Notch, New Jersey
Current Conditions -  °F | °C
As of 7:53 AM on Wednesday 22 Oct 2014 (Local Time) from KCDW Reporting Station
Light Rain Light Rain  
Wind Chill: 52°   Ceiling: 1000
Heat Index: 52°   Visibility: 8mi
Dew Point: 49°   Wind: 5mph
Humidity: 89%   Direction: NA
Pressure: 29.95"   Gusts: NA
Location:  40.8835°N, 74.2057°W
Report Text: KCDW 221153Z AUTO VRB04KT 8SM -RA OVC010 11/09 A2995 RMK AO2 CIG 006V013 SLP145 P0002 60009 70051 T01110094 10128 20111 51017 TSNO
Loading
Personal Weather Stations






























Interactive Weather Map
Tropical Storm Tracking
New forecast layout! Learn more

10-Day Weather Forecast

Advertisements
Track Severe Weather on mobile